sensor_id;sensor_type;location;lat;lon;timestamp;temperature;humidity
2571;DHT22;1295;51.130;6.732;2023-11-19T00:01:46;10.40;99.90
2571;DHT22;1295;51.130;6.732;2023-11-19T00:04:12;10.70;99.90
2571;DHT22;1295;51.130;6.732;2023-11-19T00:06:38;10.60;99.90
2571;DHT22;1295;51.130;6.732;2023-11-19T00:09:04;10.60;99.90
2571;DHT22;1295;51.130;6.732;2023-11-19T00:11:30;10.60;99.90
2571;DHT22;1295;51.130;6.732;2023-11-19T00:13:56;10.60;99.90
2571;DHT22;1295;51.130;6.732;2023-11-19T00:16:21;10.60;99.90
2571;DHT22;1295;51.130;6.732;2023-11-19T00:18:47;10.50;99.90
2571;DHT22;1295;51.130;6.732;2023-11-19T00:21:13;10.00;99.90
2571;DHT22;1295;51.130;6.732;2023-11-19T00:23:39;10.00;99.90
2571;DHT22;1295;51.130;6.732;2023-11-19T00:26:05;9.80;99.90
2571;DHT22;1295;51.130;6.732;2023-11-19T00:28:30;10.40;99.90
2571;DHT22;1295;51.130;6.732;2023-11-19T00:30:56;9.60;99.90
2571;DHT22;1295;51.130;6.732;2023-11-19T00:33:22;9.70;99.90
2571;DHT22;1295;51.130;6.732;2023-11-19T00:35:47;9.90;99.90
2571;DHT22;1295;51.130;6.732;2023-11-19T00:38:13;10.10;99.90
2571;DHT22;1295;51.130;6.732;2023-11-19T00:40:39;9.70;99.90
2571;DHT22;1295;51.130;6.732;2023-11-19T00:43:04;9.90;99.90
2571;DHT22;1295;51.130;6.732;2023-11-19T00:45:30;9.70;99.90
2571;DHT22;1295;51.130;6.732;2023-11-19T00:47:56;9.60;99.90
2571;DHT22;1295;51.130;6.732;2023-11-19T00:50:21;10.10;99.90
2571;DHT22;1295;51.130;6.732;2023-11-19T00:52:47;10.00;99.90
2571;DHT22;1295;51.130;6.732;2023-11-19T00:55:13;9.60;99.90
2571;DHT22;1295;51.130;6.732;2023-11-19T00:57:39;9.60;99.90
2571;DHT22;1295;51.130;6.732;2023-11-19T01:00:06;10.00;99.90
2571;DHT22;1295;51.130;6.732;2023-11-19T01:02:32;10.70;99.90
2571;DHT22;1295;51.130;6.732;2023-11-19T01:04:58;10.10;99.90
2571;DHT22;1295;51.130;6.732;2023-11-19T01:07:23;9.70;99.90
2571;DHT22;1295;51.130;6.732;2023-11-19T01:09:49;9.70;99.90
2571;DHT22;1295;51.130;6.732;2023-11-19T01:12:15;10.30;99.90
2571;DHT22;1295;51.130;6.732;2023-11-19T01:14:41;10.40;99.90
2571;DHT22;1295;51.130;6.732;2023-11-19T01:17:07;10.30;99.90
2571;DHT22;1295;51.130;6.732;2023-11-19T01:19:32;10.20;99.90
2571;DHT22;1295;51.130;6.732;2023-11-19T01:21:58;10.10;99.90
2571;DHT22;1295;51.130;6.732;2023-11-19T01:24:24;10.20;99.90
2571;DHT22;1295;51.130;6.732;2023-11-19T01:26:49;10.10;99.90
2571;DHT22;1295;51.130;6.732;2023-11-19T01:29:15;10.50;99.90
2571;DHT22;1295;51.130;6.732;2023-11-19T01:31:42;10.30;99.90
2571;DHT22;1295;51.130;6.732;2023-11-19T01:34:08;10.50;99.90
2571;DHT22;1295;51.130;6.732;2023-11-19T01:36:34;10.40;99.90
2571;DHT22;1295;51.130;6.732;2023-11-19T01:38:59;10.20;99.90
2571;DHT22;1295;51.130;6.732;2023-11-19T01:41:25;10.70;99.90
2571;DHT22;1295;51.130;6.732;2023-11-19T01:43:51;10.60;99.90
2571;DHT22;1295;51.130;6.732;2023-11-19T01:46:22;10.40;99.90
2571;DHT22;1295;51.130;6.732;2023-11-19T01:48:54;10.40;99.90
2571;DHT22;1295;51.130;6.732;2023-11-19T01:51:19;10.40;99.90
2571;DHT22;1295;51.130;6.732;2023-11-19T01:53:45;10.40;99.90
2571;DHT22;1295;51.130;6.732;2023-11-19T01:56:12;10.50;99.90
2571;DHT22;1295;51.130;6.732;2023-11-19T01:58:38;10.50;99.90
2571;DHT22;1295;51.130;6.732;2023-11-19T02:01:05;10.60;99.90
2571;DHT22;1295;51.130;6.732;2023-11-19T02:03:31;10.60;99.90
2571;DHT22;1295;51.130;6.732;2023-11-19T02:05:57;10.40;99.90
2571;DHT22;1295;51.130;6.732;2023-11-19T02:08:22;10.80;99.90
2571;DHT22;1295;51.130;6.732;2023-11-19T02:10:48;10.60;99.90
2571;DHT22;1295;51.130;6.732;2023-11-19T02:13:14;10.70;99.90
2571;DHT22;1295;51.130;6.732;2023-11-19T02:15:40;11.10;99.90
2571;DHT22;1295;51.130;6.732;2023-11-19T02:20:43;10.70;99.90
2571;DHT22;1295;51.130;6.732;2023-11-19T02:23:09;11.00;99.90
2571;DHT22;1295;51.130;6.732;2023-11-19T02:25:34;10.90;99.90
2571;DHT22;1295;51.130;6.732;2023-11-19T02:28:01;10.60;99.90
2571;DHT22;1295;51.130;6.732;2023-11-19T02:30:26;10.60;99.90
2571;DHT22;1295;51.130;6.732;2023-11-19T02:32:53;10.70;99.90
2571;DHT22;1295;51.130;6.732;2023-11-19T02:35:18;10.90;99.90
2571;DHT22;1295;51.130;6.732;2023-11-19T02:37:43;10.70;99.90
2571;DHT22;1295;51.130;6.732;2023-11-19T02:40:10;10.70;99.90
2571;DHT22;1295;51.130;6.732;2023-11-19T02:42:36;10.70;99.90
2571;DHT22;1295;51.130;6.732;2023-11-19T02:45:01;10.80;99.90
2571;DHT22;1295;51.130;6.732;2023-11-19T02:47:27;10.60;99.90
2571;DHT22;1295;51.130;6.732;2023-11-19T02:49:53;11.00;99.90
2571;DHT22;1295;51.130;6.732;2023-11-19T02:52:19;10.80;99.90
2571;DHT22;1295;51.130;6.732;2023-11-19T02:54:45;10.70;99.90
2571;DHT22;1295;51.130;6.732;2023-11-19T02:57:10;10.80;99.90
2571;DHT22;1295;51.130;6.732;2023-11-19T02:59:38;10.50;99.90
2571;DHT22;1295;51.130;6.732;2023-11-19T03:02:02;11.10;99.90
2571;DHT22;1295;51.130;6.732;2023-11-19T03:04:28;10.70;99.90
2571;DHT22;1295;51.130;6.732;2023-11-19T03:06:53;10.80;99.90
2571;DHT22;1295;51.130;6.732;2023-11-19T03:09:19;10.90;99.90
2571;DHT22;1295;51.130;6.732;2023-11-19T03:11:46;11.00;99.90
2571;DHT22;1295;51.130;6.732;2023-11-19T03:14:11;11.00;99.90
2571;DHT22;1295;51.130;6.732;2023-11-19T03:16:37;10.60;99.90
2571;DHT22;1295;51.130;6.732;2023-11-19T03:19:03;10.80;99.90
2571;DHT22;1295;51.130;6.732;2023-11-19T03:21:29;10.80;99.90
2571;DHT22;1295;51.130;6.732;2023-11-19T03:23:55;11.10;99.90
2571;DHT22;1295;51.130;6.732;2023-11-19T03:26:21;11.20;99.90
2571;DHT22;1295;51.130;6.732;2023-11-19T03:28:47;11.20;99.90
2571;DHT22;1295;51.130;6.732;2023-11-19T03:31:13;11.00;99.90
2571;DHT22;1295;51.130;6.732;2023-11-19T03:33:39;10.90;99.90
2571;DHT22;1295;51.130;6.732;2023-11-19T03:36:05;10.90;99.90
2571;DHT22;1295;51.130;6.732;2023-11-19T03:38:31;11.10;99.90
2571;DHT22;1295;51.130;6.732;2023-11-19T03:40:58;10.80;99.90
2571;DHT22;1295;51.130;6.732;2023-11-19T03:43:23;10.70;99.90
2571;DHT22;1295;51.130;6.732;2023-11-19T03:45:49;11.20;99.90
2571;DHT22;1295;51.130;6.732;2023-11-19T03:48:15;11.30;99.90
2571;DHT22;1295;51.130;6.732;2023-11-19T03:50:42;11.20;99.90
2571;DHT22;1295;51.130;6.732;2023-11-19T03:53:07;11.20;99.90
2571;DHT22;1295;51.130;6.732;2023-11-19T03:55:33;11.40;99.90
2571;DHT22;1295;51.130;6.732;2023-11-19T03:57:58;11.30;99.90
2571;DHT22;1295;51.130;6.732;2023-11-19T04:00:24;11.40;99.90
2571;DHT22;1295;51.130;6.732;2023-11-19T04:02:49;11.70;99.90
2571;DHT22;1295;51.130;6.732;2023-11-19T04:05:15;11.40;99.90
2571;DHT22;1295;51.130;6.732;2023-11-19T04:07:42;11.60;99.90
2571;DHT22;1295;51.130;6.732;2023-11-19T04:10:07;11.60;99.90
2571;DHT22;1295;51.130;6.732;2023-11-19T04:12:33;11.20;99.90
2571;DHT22;1295;51.130;6.732;2023-11-19T04:14:59;11.20;99.90
2571;DHT22;1295;51.130;6.732;2023-11-19T04:17:24;11.10;99.90
2571;DHT22;1295;51.130;6.732;2023-11-19T04:19:50;11.20;99.90
2571;DHT22;1295;51.130;6.732;2023-11-19T04:22:16;11.00;99.90
2571;DHT22;1295;51.130;6.732;2023-11-19T04:24:42;11.00;99.90
2571;DHT22;1295;51.130;6.732;2023-11-19T04:27:08;11.00;99.90
2571;DHT22;1295;51.130;6.732;2023-11-19T04:29:34;11.00;99.90
2571;DHT22;1295;51.130;6.732;2023-11-19T04:31:59;11.00;99.90
2571;DHT22;1295;51.130;6.732;2023-11-19T04:34:25;11.10;99.90
2571;DHT22;1295;51.130;6.732;2023-11-19T04:36:50;11.10;99.90
2571;DHT22;1295;51.130;6.732;2023-11-19T04:39:16;11.00;99.90
2571;DHT22;1295;51.130;6.732;2023-11-19T04:41:45;11.00;99.90
2571;DHT22;1295;51.130;6.732;2023-11-19T04:44:11;11.20;99.90
2571;DHT22;1295;51.130;6.732;2023-11-19T04:46:36;11.20;99.90
2571;DHT22;1295;51.130;6.732;2023-11-19T04:49:03;11.00;99.90
2571;DHT22;1295;51.130;6.732;2023-11-19T04:51:29;11.00;99.90
2571;DHT22;1295;51.130;6.732;2023-11-19T04:53:54;11.30;99.90
2571;DHT22;1295;51.130;6.732;2023-11-19T04:56:20;11.20;99.90
2571;DHT22;1295;51.130;6.732;2023-11-19T04:58:46;11.00;99.90
2571;DHT22;1295;51.130;6.732;2023-11-19T05:01:13;10.90;99.90
2571;DHT22;1295;51.130;6.732;2023-11-19T05:03:38;10.90;99.90
2571;DHT22;1295;51.130;6.732;2023-11-19T05:06:05;11.10;99.90
2571;DHT22;1295;51.130;6.732;2023-11-19T05:08:31;11.20;99.90
2571;DHT22;1295;51.130;6.732;2023-11-19T05:10:57;11.20;99.90
2571;DHT22;1295;51.130;6.732;2023-11-19T05:13:22;11.00;99.90
2571;DHT22;1295;51.130;6.732;2023-11-19T05:15:48;11.00;99.90
2571;DHT22;1295;51.130;6.732;2023-11-19T05:18:14;11.00;99.90
2571;DHT22;1295;51.130;6.732;2023-11-19T05:20:40;11.10;99.90
2571;DHT22;1295;51.130;6.732;2023-11-19T05:23:06;11.20;99.90
2571;DHT22;1295;51.130;6.732;2023-11-19T05:25:31;11.10;99.90
2571;DHT22;1295;51.130;6.732;2023-11-19T05:27:57;11.20;99.90
2571;DHT22;1295;51.130;6.732;2023-11-19T05:30:23;11.30;99.90
2571;DHT22;1295;51.130;6.732;2023-11-19T05:32:49;10.90;99.90
2571;DHT22;1295;51.130;6.732;2023-11-19T05:35:16;11.10;99.90
2571;DHT22;1295;51.130;6.732;2023-11-19T05:37:41;11.10;99.90
2571;DHT22;1295;51.130;6.732;2023-11-19T05:40:08;11.20;99.90
2571;DHT22;1295;51.130;6.732;2023-11-19T05:42:34;11.20;99.90
2571;DHT22;1295;51.130;6.732;2023-11-19T05:45:00;11.10;99.90
2571;DHT22;1295;51.130;6.732;2023-11-19T05:47:26;11.00;99.90
2571;DHT22;1295;51.130;6.732;2023-11-19T05:49:51;11.10;99.90
2571;DHT22;1295;51.130;6.732;2023-11-19T05:52:17;11.00;99.90
2571;DHT22;1295;51.130;6.732;2023-11-19T05:54:43;11.10;99.90
2571;DHT22;1295;51.130;6.732;2023-11-19T05:57:08;11.00;99.90
2571;DHT22;1295;51.130;6.732;2023-11-19T05:59:34;11.10;99.90
2571;DHT22;1295;51.130;6.732;2023-11-19T06:02:01;11.10;99.90
2571;DHT22;1295;51.130;6.732;2023-11-19T06:04:26;11.10;99.90
2571;DHT22;1295;51.130;6.732;2023-11-19T06:06:52;11.00;99.90
2571;DHT22;1295;51.130;6.732;2023-11-19T06:09:18;11.00;99.90
2571;DHT22;1295;51.130;6.732;2023-11-19T06:11:43;11.20;99.90
2571;DHT22;1295;51.130;6.732;2023-11-19T06:14:09;11.20;99.90
2571;DHT22;1295;51.130;6.732;2023-11-19T06:16:35;11.10;99.90
2571;DHT22;1295;51.130;6.732;2023-11-19T06:19:00;11.00;99.90
2571;DHT22;1295;51.130;6.732;2023-11-19T06:21:26;11.20;99.90
2571;DHT22;1295;51.130;6.732;2023-11-19T06:23:52;11.20;99.90
2571;DHT22;1295;51.130;6.732;2023-11-19T06:26:17;11.10;99.90
2571;DHT22;1295;51.130;6.732;2023-11-19T06:28:43;11.20;99.90
2571;DHT22;1295;51.130;6.732;2023-11-19T06:31:09;11.20;99.90
2571;DHT22;1295;51.130;6.732;2023-11-19T06:33:34;11.10;99.90
2571;DHT22;1295;51.130;6.732;2023-11-19T06:36:01;11.10;99.90
2571;DHT22;1295;51.130;6.732;2023-11-19T06:38:26;11.10;99.90
2571;DHT22;1295;51.130;6.732;2023-11-19T06:40:52;11.10;99.90
2571;DHT22;1295;51.130;6.732;2023-11-19T06:43:18;11.00;99.90
2571;DHT22;1295;51.130;6.732;2023-11-19T06:45:44;11.10;99.90
2571;DHT22;1295;51.130;6.732;2023-11-19T06:48:10;11.10;99.90
2571;DHT22;1295;51.130;6.732;2023-11-19T06:50:36;11.10;99.90
2571;DHT22;1295;51.130;6.732;2023-11-19T06:53:02;11.00;99.90
2571;DHT22;1295;51.130;6.732;2023-11-19T06:55:28;11.00;99.90
2571;DHT22;1295;51.130;6.732;2023-11-19T06:57:53;10.90;99.90
2571;DHT22;1295;51.130;6.732;2023-11-19T07:00:19;10.90;99.90
2571;DHT22;1295;51.130;6.732;2023-11-19T07:02:45;11.00;99.90
2571;DHT22;1295;51.130;6.732;2023-11-19T07:05:11;11.00;99.90
2571;DHT22;1295;51.130;6.732;2023-11-19T07:07:37;11.00;99.90
2571;DHT22;1295;51.130;6.732;2023-11-19T07:10:03;11.00;99.90
2571;DHT22;1295;51.130;6.732;2023-11-19T07:12:29;10.90;99.90
2571;DHT22;1295;51.130;6.732;2023-11-19T07:14:54;10.90;99.90
2571;DHT22;1295;51.130;6.732;2023-11-19T07:17:21;10.90;99.90
2571;DHT22;1295;51.130;6.732;2023-11-19T07:19:47;10.90;99.90
2571;DHT22;1295;51.130;6.732;2023-11-19T07:22:12;10.90;99.90
2571;DHT22;1295;51.130;6.732;2023-11-19T07:24:39;10.90;99.90
2571;DHT22;1295;51.130;6.732;2023-11-19T07:27:05;10.90;99.90
2571;DHT22;1295;51.130;6.732;2023-11-19T07:29:31;10.90;99.90
2571;DHT22;1295;51.130;6.732;2023-11-19T07:31:57;10.90;99.90
2571;DHT22;1295;51.130;6.732;2023-11-19T07:34:22;10.90;99.90
2571;DHT22;1295;51.130;6.732;2023-11-19T07:36:48;11.00;99.90
2571;DHT22;1295;51.130;6.732;2023-11-19T07:39:14;10.90;99.90
2571;DHT22;1295;51.130;6.732;2023-11-19T07:41:41;10.80;99.90
2571;DHT22;1295;51.130;6.732;2023-11-19T07:44:07;10.80;99.90
2571;DHT22;1295;51.130;6.732;2023-11-19T07:46:32;10.90;99.90
2571;DHT22;1295;51.130;6.732;2023-11-19T07:48:58;10.90;99.90
2571;DHT22;1295;51.130;6.732;2023-11-19T07:51:25;11.00;99.90
2571;DHT22;1295;51.130;6.732;2023-11-19T07:53:50;11.00;99.90
2571;DHT22;1295;51.130;6.732;2023-11-19T07:56:17;10.90;99.90
2571;DHT22;1295;51.130;6.732;2023-11-19T07:58:43;10.90;99.90
2571;DHT22;1295;51.130;6.732;2023-11-19T08:01:09;10.90;99.90
2571;DHT22;1295;51.130;6.732;2023-11-19T08:03:36;11.00;99.90
2571;DHT22;1295;51.130;6.732;2023-11-19T08:06:03;11.00;99.90
2571;DHT22;1295;51.130;6.732;2023-11-19T08:08:28;11.00;99.90
2571;DHT22;1295;51.130;6.732;2023-11-19T08:10:54;11.10;99.90
2571;DHT22;1295;51.130;6.732;2023-11-19T08:13:21;11.00;99.90
2571;DHT22;1295;51.130;6.732;2023-11-19T08:15:47;11.20;99.90
2571;DHT22;1295;51.130;6.732;2023-11-19T08:18:13;11.20;99.90
2571;DHT22;1295;51.130;6.732;2023-11-19T08:20:39;11.20;99.90
2571;DHT22;1295;51.130;6.732;2023-11-19T08:23:04;11.10;99.90
2571;DHT22;1295;51.130;6.732;2023-11-19T08:25:30;11.30;99.90
2571;DHT22;1295;51.130;6.732;2023-11-19T08:27:56;11.40;99.90
2571;DHT22;1295;51.130;6.732;2023-11-19T08:30:21;11.30;99.90
2571;DHT22;1295;51.130;6.732;2023-11-19T08:32:47;11.30;99.90
2571;DHT22;1295;51.130;6.732;2023-11-19T08:35:13;11.40;99.90
2571;DHT22;1295;51.130;6.732;2023-11-19T08:37:43;11.40;99.90
2571;DHT22;1295;51.130;6.732;2023-11-19T08:40:10;11.30;99.90
2571;DHT22;1295;51.130;6.732;2023-11-19T08:42:36;11.40;99.90
2571;DHT22;1295;51.130;6.732;2023-11-19T08:45:03;11.40;99.90
2571;DHT22;1295;51.130;6.732;2023-11-19T08:47:29;11.40;99.90
2571;DHT22;1295;51.130;6.732;2023-11-19T08:49:55;11.40;99.90
2571;DHT22;1295;51.130;6.732;2023-11-19T08:52:20;11.40;99.90
2571;DHT22;1295;51.130;6.732;2023-11-19T08:54:46;11.40;99.90
2571;DHT22;1295;51.130;6.732;2023-11-19T08:57:12;11.50;99.90
2571;DHT22;1295;51.130;6.732;2023-11-19T08:59:37;11.60;99.90
2571;DHT22;1295;51.130;6.732;2023-11-19T09:02:05;11.70;99.90
2571;DHT22;1295;51.130;6.732;2023-11-19T09:04:30;11.70;99.90
2571;DHT22;1295;51.130;6.732;2023-11-19T09:06:57;11.50;99.90
2571;DHT22;1295;51.130;6.732;2023-11-19T09:09:22;11.70;99.90
2571;DHT22;1295;51.130;6.732;2023-11-19T09:11:47;11.90;99.90
2571;DHT22;1295;51.130;6.732;2023-11-19T09:14:13;12.10;99.90
2571;DHT22;1295;51.130;6.732;2023-11-19T09:16:39;12.00;99.90
2571;DHT22;1295;51.130;6.732;2023-11-19T09:19:04;12.00;99.90
2571;DHT22;1295;51.130;6.732;2023-11-19T09:21:31;12.10;99.90
2571;DHT22;1295;51.130;6.732;2023-11-19T09:23:57;12.20;99.90
2571;DHT22;1295;51.130;6.732;2023-11-19T09:26:23;12.20;99.90
2571;DHT22;1295;51.130;6.732;2023-11-19T09:28:48;12.40;99.90
2571;DHT22;1295;51.130;6.732;2023-11-19T09:31:15;12.50;99.90
2571;DHT22;1295;51.130;6.732;2023-11-19T09:33:40;12.90;99.90
2571;DHT22;1295;51.130;6.732;2023-11-19T09:36:07;12.60;99.90
2571;DHT22;1295;51.130;6.732;2023-11-19T09:38:33;12.60;99.90
2571;DHT22;1295;51.130;6.732;2023-11-19T09:40:59;12.40;99.90
2571;DHT22;1295;51.130;6.732;2023-11-19T09:43:24;12.30;99.90
2571;DHT22;1295;51.130;6.732;2023-11-19T09:45:51;12.40;99.90
2571;DHT22;1295;51.130;6.732;2023-11-19T09:48:17;12.40;99.90
2571;DHT22;1295;51.130;6.732;2023-11-19T09:50:42;12.50;99.90
2571;DHT22;1295;51.130;6.732;2023-11-19T09:53:08;12.50;99.90
2571;DHT22;1295;51.130;6.732;2023-11-19T09:55:33;12.60;99.90
2571;DHT22;1295;51.130;6.732;2023-11-19T09:58:00;12.60;99.90
2571;DHT22;1295;51.130;6.732;2023-11-19T10:00:25;12.60;99.90
2571;DHT22;1295;51.130;6.732;2023-11-19T10:02:51;12.80;99.90
2571;DHT22;1295;51.130;6.732;2023-11-19T10:05:17;12.50;99.90
2571;DHT22;1295;51.130;6.732;2023-11-19T10:07:43;12.50;99.90
2571;DHT22;1295;51.130;6.732;2023-11-19T10:10:09;13.00;99.90
2571;DHT22;1295;51.130;6.732;2023-11-19T10:12:34;13.10;99.90
2571;DHT22;1295;51.130;6.732;2023-11-19T10:15:00;13.60;99.90
2571;DHT22;1295;51.130;6.732;2023-11-19T10:17:28;13.40;99.90
2571;DHT22;1295;51.130;6.732;2023-11-19T10:19:54;13.40;99.90
2571;DHT22;1295;51.130;6.732;2023-11-19T10:22:19;13.40;99.90
2571;DHT22;1295;51.130;6.732;2023-11-19T10:24:46;13.30;99.90
2571;DHT22;1295;51.130;6.732;2023-11-19T10:27:11;13.30;99.90
2571;DHT22;1295;51.130;6.732;2023-11-19T10:29:38;13.50;99.90
2571;DHT22;1295;51.130;6.732;2023-11-19T10:32:04;13.50;99.90
2571;DHT22;1295;51.130;6.732;2023-11-19T10:34:30;13.30;99.90
2571;DHT22;1295;51.130;6.732;2023-11-19T10:36:55;13.40;99.90
2571;DHT22;1295;51.130;6.732;2023-11-19T10:39:21;13.30;99.90
2571;DHT22;1295;51.130;6.732;2023-11-19T10:41:47;13.10;99.90
2571;DHT22;1295;51.130;6.732;2023-11-19T10:44:23;13.10;99.90
2571;DHT22;1295;51.130;6.732;2023-11-19T10:46:39;13.30;99.90
2571;DHT22;1295;51.130;6.732;2023-11-19T10:49:06;13.10;99.90
2571;DHT22;1295;51.130;6.732;2023-11-19T10:51:31;13.10;99.90
2571;DHT22;1295;51.130;6.732;2023-11-19T10:53:57;13.10;99.90
2571;DHT22;1295;51.130;6.732;2023-11-19T10:56:23;13.10;99.90
2571;DHT22;1295;51.130;6.732;2023-11-19T10:58:48;13.10;99.90
2571;DHT22;1295;51.130;6.732;2023-11-19T11:01:16;12.90;99.90
2571;DHT22;1295;51.130;6.732;2023-11-19T11:03:39;13.10;99.90
2571;DHT22;1295;51.130;6.732;2023-11-19T11:06:06;12.90;99.90
2571;DHT22;1295;51.130;6.732;2023-11-19T11:08:32;12.90;99.90
2571;DHT22;1295;51.130;6.732;2023-11-19T11:10:57;13.00;99.90
2571;DHT22;1295;51.130;6.732;2023-11-19T11:13:23;12.80;99.90
2571;DHT22;1295;51.130;6.732;2023-11-19T11:15:50;12.80;99.90
2571;DHT22;1295;51.130;6.732;2023-11-19T11:18:16;12.80;99.90
2571;DHT22;1295;51.130;6.732;2023-11-19T11:20:43;13.10;99.90
2571;DHT22;1295;51.130;6.732;2023-11-19T11:26:18;13.30;99.90
2571;DHT22;1295;51.130;6.732;2023-11-19T11:28:46;13.40;99.90
2571;DHT22;1295;51.130;6.732;2023-11-19T11:31:29;14.00;99.90
2571;DHT22;1295;51.130;6.732;2023-11-19T11:34:02;14.10;99.90
2571;DHT22;1295;51.130;6.732;2023-11-19T11:36:24;13.90;99.90
2571;DHT22;1295;51.130;6.732;2023-11-19T11:38:50;14.20;99.90
2571;DHT22;1295;51.130;6.732;2023-11-19T11:41:19;14.20;99.90
2571;DHT22;1295;51.130;6.732;2023-11-19T11:43:45;14.40;99.90
2571;DHT22;1295;51.130;6.732;2023-11-19T11:49:03;14.50;99.90
2571;DHT22;1295;51.130;6.732;2023-11-19T11:54:07;14.70;99.90
2571;DHT22;1295;51.130;6.732;2023-11-19T11:56:33;14.20;99.90
2571;DHT22;1295;51.130;6.732;2023-11-19T11:59:00;14.70;99.90
2571;DHT22;1295;51.130;6.732;2023-11-19T12:01:25;14.70;99.90
2571;DHT22;1295;51.130;6.732;2023-11-19T12:03:51;14.90;99.90
2571;DHT22;1295;51.130;6.732;2023-11-19T12:06:17;14.80;99.90
2571;DHT22;1295;51.130;6.732;2023-11-19T12:08:42;14.60;99.90
2571;DHT22;1295;51.130;6.732;2023-11-19T12:11:09;15.20;99.90
2571;DHT22;1295;51.130;6.732;2023-11-19T12:13:46;15.00;99.90
2571;DHT22;1295;51.130;6.732;2023-11-19T12:16:08;15.00;99.90
2571;DHT22;1295;51.130;6.732;2023-11-19T12:18:34;14.70;99.90
2571;DHT22;1295;51.130;6.732;2023-11-19T12:21:00;14.70;99.90
2571;DHT22;1295;51.130;6.732;2023-11-19T12:23:29;14.50;99.90
2571;DHT22;1295;51.130;6.732;2023-11-19T12:25:55;14.70;99.90
2571;DHT22;1295;51.130;6.732;2023-11-19T12:28:21;14.70;99.90
2571;DHT22;1295;51.130;6.732;2023-11-19T12:30:46;14.50;99.90
2571;DHT22;1295;51.130;6.732;2023-11-19T12:33:13;14.30;99.90
2571;DHT22;1295;51.130;6.732;2023-11-19T12:35:41;14.40;99.90
2571;DHT22;1295;51.130;6.732;2023-11-19T12:38:06;14.40;99.90
2571;DHT22;1295;51.130;6.732;2023-11-19T12:40:32;14.40;99.90
2571;DHT22;1295;51.130;6.732;2023-11-19T12:42:57;14.30;99.90
2571;DHT22;1295;51.130;6.732;2023-11-19T12:45:23;14.10;99.90
2571;DHT22;1295;51.130;6.732;2023-11-19T12:47:49;13.90;99.90
2571;DHT22;1295;51.130;6.732;2023-11-19T12:50:16;13.80;99.90
2571;DHT22;1295;51.130;6.732;2023-11-19T12:52:41;13.70;99.90
2571;DHT22;1295;51.130;6.732;2023-11-19T12:57:46;14.10;99.90
2571;DHT22;1295;51.130;6.732;2023-11-19T13:00:22;14.10;99.90
2571;DHT22;1295;51.130;6.732;2023-11-19T13:02:49;13.80;99.90
2571;DHT22;1295;51.130;6.732;2023-11-19T13:05:22;13.80;99.90
2571;DHT22;1295;51.130;6.732;2023-11-19T13:07:47;13.60;99.90
2571;DHT22;1295;51.130;6.732;2023-11-19T13:10:13;14.10;99.90
2571;DHT22;1295;51.130;6.732;2023-11-19T13:12:39;14.10;99.90
2571;DHT22;1295;51.130;6.732;2023-11-19T13:15:06;14.10;99.90
2571;DHT22;1295;51.130;6.732;2023-11-19T13:17:32;14.10;99.90
2571;DHT22;1295;51.130;6.732;2023-11-19T13:19:58;14.10;99.90
2571;DHT22;1295;51.130;6.732;2023-11-19T13:22:23;13.80;99.90
2571;DHT22;1295;51.130;6.732;2023-11-19T13:24:49;13.90;99.90
2571;DHT22;1295;51.130;6.732;2023-11-19T13:27:15;13.90;99.90
2571;DHT22;1295;51.130;6.732;2023-11-19T13:29:40;13.90;99.90
2571;DHT22;1295;51.130;6.732;2023-11-19T13:32:07;13.70;99.90
2571;DHT22;1295;51.130;6.732;2023-11-19T13:34:32;13.70;99.90
2571;DHT22;1295;51.130;6.732;2023-11-19T13:36:58;13.70;99.90
2571;DHT22;1295;51.130;6.732;2023-11-19T13:39:24;13.60;99.90
2571;DHT22;1295;51.130;6.732;2023-11-19T13:41:50;13.70;99.90
2571;DHT22;1295;51.130;6.732;2023-11-19T13:44:16;13.60;99.90
2571;DHT22;1295;51.130;6.732;2023-11-19T13:46:41;13.50;99.90
2571;DHT22;1295;51.130;6.732;2023-11-19T13:49:07;13.60;99.90
2571;DHT22;1295;51.130;6.732;2023-11-19T13:51:33;13.50;99.90
2571;DHT22;1295;51.130;6.732;2023-11-19T13:53:59;13.40;99.90
2571;DHT22;1295;51.130;6.732;2023-11-19T13:56:24;13.30;99.90
2571;DHT22;1295;51.130;6.732;2023-11-19T13:58:50;13.40;99.90
2571;DHT22;1295;51.130;6.732;2023-11-19T14:01:16;13.30;99.90
2571;DHT22;1295;51.130;6.732;2023-11-19T14:03:42;13.30;99.90
2571;DHT22;1295;51.130;6.732;2023-11-19T14:06:08;13.30;99.90
2571;DHT22;1295;51.130;6.732;2023-11-19T14:08:34;13.30;99.90
2571;DHT22;1295;51.130;6.732;2023-11-19T14:11:00;13.20;99.90
2571;DHT22;1295;51.130;6.732;2023-11-19T14:13:25;13.10;99.90
2571;DHT22;1295;51.130;6.732;2023-11-19T14:15:52;13.00;99.90
2571;DHT22;1295;51.130;6.732;2023-11-19T14:18:18;13.00;99.90
2571;DHT22;1295;51.130;6.732;2023-11-19T14:20:44;13.10;99.90
2571;DHT22;1295;51.130;6.732;2023-11-19T14:23:10;13.10;99.90
2571;DHT22;1295;51.130;6.732;2023-11-19T14:25:35;13.10;99.90
2571;DHT22;1295;51.130;6.732;2023-11-19T14:28:01;12.90;99.90
2571;DHT22;1295;51.130;6.732;2023-11-19T14:30:27;12.80;99.90
2571;DHT22;1295;51.130;6.732;2023-11-19T14:32:52;12.80;99.90
2571;DHT22;1295;51.130;6.732;2023-11-19T14:35:18;12.90;99.90
2571;DHT22;1295;51.130;6.732;2023-11-19T14:37:44;12.80;99.90
2571;DHT22;1295;51.130;6.732;2023-11-19T14:40:10;12.80;99.90
2571;DHT22;1295;51.130;6.732;2023-11-19T14:42:36;12.80;99.90
2571;DHT22;1295;51.130;6.732;2023-11-19T14:45:02;12.80;99.90
2571;DHT22;1295;51.130;6.732;2023-11-19T14:47:28;12.80;99.90
2571;DHT22;1295;51.130;6.732;2023-11-19T14:49:54;12.80;99.90
2571;DHT22;1295;51.130;6.732;2023-11-19T14:52:20;12.80;99.90
2571;DHT22;1295;51.130;6.732;2023-11-19T14:54:47;12.80;99.90
2571;DHT22;1295;51.130;6.732;2023-11-19T14:57:12;12.80;99.90
2571;DHT22;1295;51.130;6.732;2023-11-19T14:59:39;12.70;99.90
2571;DHT22;1295;51.130;6.732;2023-11-19T15:02:04;12.70;99.90
2571;DHT22;1295;51.130;6.732;2023-11-19T15:04:30;12.70;99.90
2571;DHT22;1295;51.130;6.732;2023-11-19T15:06:57;12.70;99.90
2571;DHT22;1295;51.130;6.732;2023-11-19T15:09:22;12.70;99.90
2571;DHT22;1295;51.130;6.732;2023-11-19T15:11:48;12.60;99.90
2571;DHT22;1295;51.130;6.732;2023-11-19T15:14:13;12.60;99.90
2571;DHT22;1295;51.130;6.732;2023-11-19T15:16:40;12.50;99.90
2571;DHT22;1295;51.130;6.732;2023-11-19T15:19:05;12.50;99.90
2571;DHT22;1295;51.130;6.732;2023-11-19T15:21:32;12.50;99.90
2571;DHT22;1295;51.130;6.732;2023-11-19T15:23:58;12.40;99.90
2571;DHT22;1295;51.130;6.732;2023-11-19T15:26:23;12.40;99.90
2571;DHT22;1295;51.130;6.732;2023-11-19T15:28:55;12.40;99.90
2571;DHT22;1295;51.130;6.732;2023-11-19T15:31:31;12.40;99.90
2571;DHT22;1295;51.130;6.732;2023-11-19T15:33:56;12.30;99.90
2571;DHT22;1295;51.130;6.732;2023-11-19T15:36:22;12.30;99.90
2571;DHT22;1295;51.130;6.732;2023-11-19T15:38:48;12.30;99.90
2571;DHT22;1295;51.130;6.732;2023-11-19T15:41:13;12.30;99.90
2571;DHT22;1295;51.130;6.732;2023-11-19T15:43:39;12.30;99.90
2571;DHT22;1295;51.130;6.732;2023-11-19T15:46:05;12.30;99.90
2571;DHT22;1295;51.130;6.732;2023-11-19T15:48:31;12.30;99.90
2571;DHT22;1295;51.130;6.732;2023-11-19T15:50:57;12.20;99.90
2571;DHT22;1295;51.130;6.732;2023-11-19T15:53:22;12.30;99.90
2571;DHT22;1295;51.130;6.732;2023-11-19T15:55:48;12.30;99.90
2571;DHT22;1295;51.130;6.732;2023-11-19T15:58:14;12.20;99.90
2571;DHT22;1295;51.130;6.732;2023-11-19T16:00:39;12.20;99.90
2571;DHT22;1295;51.130;6.732;2023-11-19T16:03:05;12.30;99.90
2571;DHT22;1295;51.130;6.732;2023-11-19T16:05:31;12.20;99.90
2571;DHT22;1295;51.130;6.732;2023-11-19T16:07:56;12.30;99.90